sensor_id;sensor_type;location;lat;lon;timestamp;temperature;humidity
21355;DHT22;10835;50.148;19.760;2024-01-06T00:01:54;20.80;40.90
21355;DHT22;10835;50.148;19.760;2024-01-06T00:04:23;20.90;40.90
21355;DHT22;10835;50.148;19.760;2024-01-06T00:06:52;20.90;40.90
21355;DHT22;10835;50.148;19.760;2024-01-06T00:09:21;20.80;41.00
21355;DHT22;10835;50.148;19.760;2024-01-06T00:11:49;20.70;41.10
21355;DHT22;10835;50.148;19.760;2024-01-06T00:14:17;20.70;41.10
21355;DHT22;10835;50.148;19.760;2024-01-06T00:16:46;20.70;41.10
21355;DHT22;10835;50.148;19.760;2024-01-06T00:19:15;20.70;41.10
21355;DHT22;10835;50.148;19.760;2024-01-06T00:21:46;20.60;41.30
21355;DHT22;10835;50.148;19.760;2024-01-06T00:24:14;20.60;42.10
21355;DHT22;10835;50.148;19.760;2024-01-06T00:26:43;20.60;41.60
21355;DHT22;10835;50.148;19.760;2024-01-06T00:29:11;20.40;41.80
21355;DHT22;10835;50.148;19.760;2024-01-06T00:31:40;20.40;41.90
21355;DHT22;10835;50.148;19.760;2024-01-06T00:34:09;20.50;41.90
21355;DHT22;10835;50.148;19.760;2024-01-06T00:36:37;20.20;42.00
21355;DHT22;10835;50.148;19.760;2024-01-06T00:39:07;20.20;42.20
21355;DHT22;10835;50.148;19.760;2024-01-06T00:41:36;20.30;42.10
21355;DHT22;10835;50.148;19.760;2024-01-06T00:44:04;20.50;42.10
21355;DHT22;10835;50.148;19.760;2024-01-06T00:46:33;20.40;41.90
21355;DHT22;10835;50.148;19.760;2024-01-06T00:49:02;20.30;42.30
21355;DHT22;10835;50.148;19.760;2024-01-06T00:51:31;20.30;42.40
21355;DHT22;10835;50.148;19.760;2024-01-06T00:54:03;20.30;42.20
21355;DHT22;10835;50.148;19.760;2024-01-06T00:56:33;20.40;42.00
21355;DHT22;10835;50.148;19.760;2024-01-06T00:59:02;20.50;42.00
21355;DHT22;10835;50.148;19.760;2024-01-06T01:01:30;20.60;41.90
21355;DHT22;10835;50.148;19.760;2024-01-06T01:03:59;20.40;41.90
21355;DHT22;10835;50.148;19.760;2024-01-06T01:06:27;20.30;42.10
21355;DHT22;10835;50.148;19.760;2024-01-06T01:08:56;20.20;42.10
21355;DHT22;10835;50.148;19.760;2024-01-06T01:11:24;19.50;43.20
21355;DHT22;10835;50.148;19.760;2024-01-06T01:13:56;20.00;43.20
21355;DHT22;10835;50.148;19.760;2024-01-06T01:16:25;20.10;42.90
21355;DHT22;10835;50.148;19.760;2024-01-06T01:18:53;20.00;43.00
21355;DHT22;10835;50.148;19.760;2024-01-06T01:21:22;20.30;43.00
21355;DHT22;10835;50.148;19.760;2024-01-06T01:23:50;20.20;42.60
21355;DHT22;10835;50.148;19.760;2024-01-06T01:26:19;20.50;42.40
21355;DHT22;10835;50.148;19.760;2024-01-06T01:28:47;20.70;42.00
21355;DHT22;10835;50.148;19.760;2024-01-06T01:31:17;20.70;41.90
21355;DHT22;10835;50.148;19.760;2024-01-06T01:33:46;20.90;41.70
21355;DHT22;10835;50.148;19.760;2024-01-06T01:36:15;20.80;41.50
21355;DHT22;10835;50.148;19.760;2024-01-06T01:38:45;21.00;41.50
21355;DHT22;10835;50.148;19.760;2024-01-06T01:41:13;21.00;41.50
21355;DHT22;10835;50.148;19.760;2024-01-06T01:43:42;21.00;41.40
21355;DHT22;10835;50.148;19.760;2024-01-06T01:46:11;21.10;41.20
21355;DHT22;10835;50.148;19.760;2024-01-06T01:48:42;21.10;41.20
21355;DHT22;10835;50.148;19.760;2024-01-06T01:51:11;21.10;41.10
21355;DHT22;10835;50.148;19.760;2024-01-06T01:53:41;21.10;41.00
21355;DHT22;10835;50.148;19.760;2024-01-06T01:56:10;21.20;41.10
21355;DHT22;10835;50.148;19.760;2024-01-06T01:58:39;21.20;41.10
21355;DHT22;10835;50.148;19.760;2024-01-06T02:01:08;21.30;40.90
21355;DHT22;10835;50.148;19.760;2024-01-06T02:03:42;21.30;41.10
21355;DHT22;10835;50.148;19.760;2024-01-06T02:06:11;21.20;41.00
21355;DHT22;10835;50.148;19.760;2024-01-06T02:08:40;21.10;41.30
21355;DHT22;10835;50.148;19.760;2024-01-06T02:11:09;21.10;41.30
21355;DHT22;10835;50.148;19.760;2024-01-06T02:13:38;21.20;41.10
21355;DHT22;10835;50.148;19.760;2024-01-06T02:16:06;21.30;40.90
21355;DHT22;10835;50.148;19.760;2024-01-06T02:18:35;21.00;41.00
21355;DHT22;10835;50.148;19.760;2024-01-06T02:21:06;20.80;41.60
21355;DHT22;10835;50.148;19.760;2024-01-06T02:23:39;20.80;41.80
21355;DHT22;10835;50.148;19.760;2024-01-06T02:26:07;21.10;41.40
21355;DHT22;10835;50.148;19.760;2024-01-06T02:28:36;21.20;41.20
21355;DHT22;10835;50.148;19.760;2024-01-06T02:31:04;21.30;40.90
21355;DHT22;10835;50.148;19.760;2024-01-06T02:33:33;21.40;40.90
21355;DHT22;10835;50.148;19.760;2024-01-06T02:36:04;21.20;41.00
21355;DHT22;10835;50.148;19.760;2024-01-06T02:38:32;21.30;40.90
21355;DHT22;10835;50.148;19.760;2024-01-06T02:41:02;20.80;40.90
21355;DHT22;10835;50.148;19.760;2024-01-06T02:43:31;21.10;41.30
21355;DHT22;10835;50.148;19.760;2024-01-06T02:46:00;21.30;41.00
21355;DHT22;10835;50.148;19.760;2024-01-06T02:48:28;21.40;40.80
21355;DHT22;10835;50.148;19.760;2024-01-06T02:50:59;21.50;40.60
21355;DHT22;10835;50.148;19.760;2024-01-06T02:53:28;21.50;40.60
21355;DHT22;10835;50.148;19.760;2024-01-06T02:55:57;21.60;40.50
21355;DHT22;10835;50.148;19.760;2024-01-06T02:58:26;21.50;40.30
21355;DHT22;10835;50.148;19.760;2024-01-06T03:00:55;21.50;40.40
21355;DHT22;10835;50.148;19.760;2024-01-06T03:03:23;21.60;40.50
21355;DHT22;10835;50.148;19.760;2024-01-06T03:05:52;21.50;40.40
21355;DHT22;10835;50.148;19.760;2024-01-06T03:08:20;21.50;40.50
21355;DHT22;10835;50.148;19.760;2024-01-06T03:10:49;21.40;40.60
21355;DHT22;10835;50.148;19.760;2024-01-06T03:13:18;21.30;40.90
21355;DHT22;10835;50.148;19.760;2024-01-06T03:15:49;21.30;41.00
21355;DHT22;10835;50.148;19.760;2024-01-06T03:18:17;21.00;41.30
21355;DHT22;10835;50.148;19.760;2024-01-06T03:20:46;20.80;41.70
21355;DHT22;10835;50.148;19.760;2024-01-06T03:23:14;21.10;41.60
21355;DHT22;10835;50.148;19.760;2024-01-06T03:25:43;21.30;41.30
21355;DHT22;10835;50.148;19.760;2024-01-06T03:28:11;21.30;41.00
21355;DHT22;10835;50.148;19.760;2024-01-06T03:30:40;21.40;40.90
21355;DHT22;10835;50.148;19.760;2024-01-06T03:33:10;21.40;40.90
21355;DHT22;10835;50.148;19.760;2024-01-06T03:35:39;21.40;40.70
21355;DHT22;10835;50.148;19.760;2024-01-06T03:38:08;21.30;40.70
21355;DHT22;10835;50.148;19.760;2024-01-06T03:40:36;21.10;41.10
21355;DHT22;10835;50.148;19.760;2024-01-06T03:43:05;21.30;41.20
21355;DHT22;10835;50.148;19.760;2024-01-06T03:45:36;21.30;40.90
21355;DHT22;10835;50.148;19.760;2024-01-06T03:48:07;21.30;41.00
21355;DHT22;10835;50.148;19.760;2024-01-06T03:50:37;21.30;40.90
21355;DHT22;10835;50.148;19.760;2024-01-06T03:53:05;21.30;40.90
21355;DHT22;10835;50.148;19.760;2024-01-06T03:55:34;21.30;40.90
21355;DHT22;10835;50.148;19.760;2024-01-06T03:58:02;21.40;40.80
21355;DHT22;10835;50.148;19.760;2024-01-06T04:00:31;21.10;41.20
21355;DHT22;10835;50.148;19.760;2024-01-06T04:02:59;21.20;41.20
21355;DHT22;10835;50.148;19.760;2024-01-06T04:05:27;21.20;41.20
21355;DHT22;10835;50.148;19.760;2024-01-06T04:07:57;21.00;41.40
21355;DHT22;10835;50.148;19.760;2024-01-06T04:10:26;21.20;41.50
21355;DHT22;10835;50.148;19.760;2024-01-06T04:12:54;21.20;41.30
21355;DHT22;10835;50.148;19.760;2024-01-06T04:15:23;21.20;41.10
21355;DHT22;10835;50.148;19.760;2024-01-06T04:17:52;21.30;41.10
21355;DHT22;10835;50.148;19.760;2024-01-06T04:20:20;21.40;41.10
21355;DHT22;10835;50.148;19.760;2024-01-06T04:22:49;21.40;41.00
21355;DHT22;10835;50.148;19.760;2024-01-06T04:25:18;21.40;41.00
21355;DHT22;10835;50.148;19.760;2024-01-06T04:27:48;21.50;40.90
21355;DHT22;10835;50.148;19.760;2024-01-06T04:30:17;21.50;40.80
21355;DHT22;10835;50.148;19.760;2024-01-06T04:32:46;21.40;41.10
21355;DHT22;10835;50.148;19.760;2024-01-06T04:35:16;21.50;41.00
21355;DHT22;10835;50.148;19.760;2024-01-06T04:37:45;21.10;41.10
21355;DHT22;10835;50.148;19.760;2024-01-06T04:40:18;21.20;41.20
21355;DHT22;10835;50.148;19.760;2024-01-06T04:42:47;21.30;41.40
21355;DHT22;10835;50.148;19.760;2024-01-06T04:45:18;21.20;41.40
21355;DHT22;10835;50.148;19.760;2024-01-06T04:47:47;21.20;41.30
21355;DHT22;10835;50.148;19.760;2024-01-06T04:50:15;21.30;41.30
21355;DHT22;10835;50.148;19.760;2024-01-06T04:52:44;21.10;41.40
21355;DHT22;10835;50.148;19.760;2024-01-06T04:55:12;21.30;41.30
21355;DHT22;10835;50.148;19.760;2024-01-06T04:57:42;21.50;41.10
21355;DHT22;10835;50.148;19.760;2024-01-06T05:00:12;21.50;41.00
21355;DHT22;10835;50.148;19.760;2024-01-06T05:02:41;21.50;41.20
21355;DHT22;10835;50.148;19.760;2024-01-06T05:05:09;21.40;41.20
21355;DHT22;10835;50.148;19.760;2024-01-06T05:07:38;21.50;41.20
21355;DHT22;10835;50.148;19.760;2024-01-06T05:10:08;21.60;41.00
21355;DHT22;10835;50.148;19.760;2024-01-06T05:12:36;21.60;41.00
21355;DHT22;10835;50.148;19.760;2024-01-06T05:15:08;21.60;41.00
21355;DHT22;10835;50.148;19.760;2024-01-06T05:17:37;21.70;40.80
21355;DHT22;10835;50.148;19.760;2024-01-06T05:20:06;21.70;40.60
21355;DHT22;10835;50.148;19.760;2024-01-06T05:22:36;21.80;40.60
21355;DHT22;10835;50.148;19.760;2024-01-06T05:25:05;21.80;40.40
21355;DHT22;10835;50.148;19.760;2024-01-06T05:27:33;21.90;40.40
21355;DHT22;10835;50.148;19.760;2024-01-06T05:30:02;21.90;40.40
21355;DHT22;10835;50.148;19.760;2024-01-06T05:32:32;21.80;40.50
21355;DHT22;10835;50.148;19.760;2024-01-06T05:35:01;21.80;40.50
21355;DHT22;10835;50.148;19.760;2024-01-06T05:37:31;21.90;40.60
21355;DHT22;10835;50.148;19.760;2024-01-06T05:40:01;21.90;40.40
21355;DHT22;10835;50.148;19.760;2024-01-06T05:42:31;21.90;40.40
21355;DHT22;10835;50.148;19.760;2024-01-06T05:45:00;21.90;40.20
21355;DHT22;10835;50.148;19.760;2024-01-06T05:47:28;21.80;40.20
21355;DHT22;10835;50.148;19.760;2024-01-06T05:50:00;21.80;40.40
21355;DHT22;10835;50.148;19.760;2024-01-06T05:52:29;21.80;40.40
21355;DHT22;10835;50.148;19.760;2024-01-06T05:54:57;21.70;40.50
21355;DHT22;10835;50.148;19.760;2024-01-06T05:57:26;21.60;40.60
21355;DHT22;10835;50.148;19.760;2024-01-06T05:59:55;21.60;40.80
21355;DHT22;10835;50.148;19.760;2024-01-06T06:02:23;21.60;40.80
21355;DHT22;10835;50.148;19.760;2024-01-06T06:04:52;21.60;40.90
21355;DHT22;10835;50.148;19.760;2024-01-06T06:07:21;21.50;41.00
21355;DHT22;10835;50.148;19.760;2024-01-06T06:09:50;21.50;41.00
21355;DHT22;10835;50.148;19.760;2024-01-06T06:12:20;21.40;41.10
21355;DHT22;10835;50.148;19.760;2024-01-06T06:14:49;21.40;41.90
21355;DHT22;10835;50.148;19.760;2024-01-06T06:17:20;21.40;41.40
21355;DHT22;10835;50.148;19.760;2024-01-06T06:19:49;21.40;41.40
21355;DHT22;10835;50.148;19.760;2024-01-06T06:22:22;21.50;41.40
21355;DHT22;10835;50.148;19.760;2024-01-06T06:24:51;21.50;41.20
21355;DHT22;10835;50.148;19.760;2024-01-06T06:27:19;21.50;41.20
21355;DHT22;10835;50.148;19.760;2024-01-06T06:29:48;21.60;41.10
21355;DHT22;10835;50.148;19.760;2024-01-06T06:32:17;21.60;41.10
21355;DHT22;10835;50.148;19.760;2024-01-06T06:34:46;21.30;41.10
21355;DHT22;10835;50.148;19.760;2024-01-06T06:37:17;21.10;41.70
21355;DHT22;10835;50.148;19.760;2024-01-06T06:39:47;21.30;41.60
21355;DHT22;10835;50.148;19.760;2024-01-06T06:42:16;21.40;41.30
21355;DHT22;10835;50.148;19.760;2024-01-06T06:44:45;21.50;41.60
21355;DHT22;10835;50.148;19.760;2024-01-06T06:47:14;21.50;41.20
21355;DHT22;10835;50.148;19.760;2024-01-06T06:49:42;21.60;41.10
21355;DHT22;10835;50.148;19.760;2024-01-06T06:52:11;21.60;41.00
21355;DHT22;10835;50.148;19.760;2024-01-06T06:54:40;21.70;40.90
21355;DHT22;10835;50.148;19.760;2024-01-06T06:57:10;21.60;40.90
21355;DHT22;10835;50.148;19.760;2024-01-06T06:59:39;21.60;40.90
21355;DHT22;10835;50.148;19.760;2024-01-06T07:02:07;21.70;40.90
21355;DHT22;10835;50.148;19.760;2024-01-06T07:04:36;21.70;40.80
21355;DHT22;10835;50.148;19.760;2024-01-06T07:07:04;21.60;40.90
21355;DHT22;10835;50.148;19.760;2024-01-06T07:09:33;21.30;41.40
21355;DHT22;10835;50.148;19.760;2024-01-06T07:12:02;21.30;41.50
21355;DHT22;10835;50.148;19.760;2024-01-06T07:14:32;21.50;41.60
21355;DHT22;10835;50.148;19.760;2024-01-06T07:17:00;21.40;41.60
21355;DHT22;10835;50.148;19.760;2024-01-06T07:19:28;21.50;41.50
21355;DHT22;10835;50.148;19.760;2024-01-06T07:21:57;21.60;41.30
21355;DHT22;10835;50.148;19.760;2024-01-06T07:24:26;21.70;41.30
21355;DHT22;10835;50.148;19.760;2024-01-06T07:26:55;21.70;41.20
21355;DHT22;10835;50.148;19.760;2024-01-06T07:29:24;21.70;41.10
21355;DHT22;10835;50.148;19.760;2024-01-06T07:31:54;21.70;41.10
21355;DHT22;10835;50.148;19.760;2024-01-06T07:34:24;21.80;40.90
21355;DHT22;10835;50.148;19.760;2024-01-06T07:36:53;21.80;40.90
21355;DHT22;10835;50.148;19.760;2024-01-06T07:39:22;21.80;40.90
21355;DHT22;10835;50.148;19.760;2024-01-06T07:41:51;21.70;41.00
21355;DHT22;10835;50.148;19.760;2024-01-06T07:44:19;21.70;41.20
21355;DHT22;10835;50.148;19.760;2024-01-06T07:46:56;21.60;41.20
21355;DHT22;10835;50.148;19.760;2024-01-06T07:49:25;21.70;41.60
21355;DHT22;10835;50.148;19.760;2024-01-06T07:51:53;21.70;41.20
21355;DHT22;10835;50.148;19.760;2024-01-06T07:54:22;21.60;41.30
21355;DHT22;10835;50.148;19.760;2024-01-06T07:56:50;21.70;41.40
21355;DHT22;10835;50.148;19.760;2024-01-06T07:59:19;21.60;41.80
21355;DHT22;10835;50.148;19.760;2024-01-06T08:01:47;21.50;41.80
21355;DHT22;10835;50.148;19.760;2024-01-06T08:04:17;21.50;42.00
21355;DHT22;10835;50.148;19.760;2024-01-06T08:06:46;21.50;41.80
21355;DHT22;10835;50.148;19.760;2024-01-06T08:09:14;21.50;42.00
21355;DHT22;10835;50.148;19.760;2024-01-06T08:11:43;21.50;42.00
21355;DHT22;10835;50.148;19.760;2024-01-06T08:14:13;21.60;42.10
21355;DHT22;10835;50.148;19.760;2024-01-06T08:16:41;21.60;42.10
21355;DHT22;10835;50.148;19.760;2024-01-06T08:19:09;21.70;42.20
21355;DHT22;10835;50.148;19.760;2024-01-06T08:21:39;21.70;41.70
21355;DHT22;10835;50.148;19.760;2024-01-06T08:24:08;21.80;41.60
21355;DHT22;10835;50.148;19.760;2024-01-06T08:26:37;21.90;41.50
21355;DHT22;10835;50.148;19.760;2024-01-06T08:29:06;21.90;41.60
21355;DHT22;10835;50.148;19.760;2024-01-06T08:31:34;21.90;41.60
21355;DHT22;10835;50.148;19.760;2024-01-06T08:34:05;21.90;41.60
21355;DHT22;10835;50.148;19.760;2024-01-06T08:36:35;22.00;42.00
21355;DHT22;10835;50.148;19.760;2024-01-06T08:39:05;22.10;41.80
21355;DHT22;10835;50.148;19.760;2024-01-06T08:41:35;22.00;41.30
21355;DHT22;10835;50.148;19.760;2024-01-06T08:44:04;22.10;41.40
21355;DHT22;10835;50.148;19.760;2024-01-06T08:46:32;22.10;41.60
21355;DHT22;10835;50.148;19.760;2024-01-06T08:49:00;22.20;41.80
21355;DHT22;10835;50.148;19.760;2024-01-06T08:51:30;22.20;41.60
21355;DHT22;10835;50.148;19.760;2024-01-06T08:53:58;22.20;41.40
21355;DHT22;10835;50.148;19.760;2024-01-06T08:56:28;22.30;41.40
21355;DHT22;10835;50.148;19.760;2024-01-06T08:58:56;22.40;41.50
21355;DHT22;10835;50.148;19.760;2024-01-06T09:01:25;22.50;41.60
21355;DHT22;10835;50.148;19.760;2024-01-06T09:03:53;22.30;41.40
21355;DHT22;10835;50.148;19.760;2024-01-06T09:06:22;22.30;41.60
21355;DHT22;10835;50.148;19.760;2024-01-06T09:08:50;22.50;41.50
21355;DHT22;10835;50.148;19.760;2024-01-06T09:11:19;22.50;41.60
21355;DHT22;10835;50.148;19.760;2024-01-06T09:13:49;22.70;41.90
21355;DHT22;10835;50.148;19.760;2024-01-06T09:16:19;22.70;41.60
21355;DHT22;10835;50.148;19.760;2024-01-06T09:18:48;22.70;41.50
21355;DHT22;10835;50.148;19.760;2024-01-06T09:21:17;22.50;41.50
21355;DHT22;10835;50.148;19.760;2024-01-06T09:23:46;22.60;41.70
21355;DHT22;10835;50.148;19.760;2024-01-06T09:26:15;22.60;41.70
21355;DHT22;10835;50.148;19.760;2024-01-06T09:28:44;22.70;41.70
21355;DHT22;10835;50.148;19.760;2024-01-06T09:31:14;22.70;41.70
21355;DHT22;10835;50.148;19.760;2024-01-06T09:33:42;22.60;41.60
21355;DHT22;10835;50.148;19.760;2024-01-06T09:36:11;22.70;42.10
21355;DHT22;10835;50.148;19.760;2024-01-06T09:38:41;22.70;41.80
21355;DHT22;10835;50.148;19.760;2024-01-06T09:41:09;22.70;41.80
21355;DHT22;10835;50.148;19.760;2024-01-06T09:43:38;22.80;41.90
21355;DHT22;10835;50.148;19.760;2024-01-06T09:46:10;22.80;42.00
21355;DHT22;10835;50.148;19.760;2024-01-06T09:48:43;22.80;42.40
21355;DHT22;10835;50.148;19.760;2024-01-06T09:51:13;22.80;42.30
21355;DHT22;10835;50.148;19.760;2024-01-06T09:53:46;22.80;42.40
21355;DHT22;10835;50.148;19.760;2024-01-06T09:56:16;23.00;42.70
21355;DHT22;10835;50.148;19.760;2024-01-06T09:58:45;22.90;42.30
21355;DHT22;10835;50.148;19.760;2024-01-06T10:01:14;22.80;42.70
21355;DHT22;10835;50.148;19.760;2024-01-06T10:03:44;23.00;43.00
21355;DHT22;10835;50.148;19.760;2024-01-06T10:06:14;23.10;42.40
21355;DHT22;10835;50.148;19.760;2024-01-06T10:08:42;23.00;42.50
21355;DHT22;10835;50.148;19.760;2024-01-06T10:11:11;22.90;42.60
21355;DHT22;10835;50.148;19.760;2024-01-06T10:13:41;22.90;42.90
21355;DHT22;10835;50.148;19.760;2024-01-06T10:16:09;22.40;42.90
21355;DHT22;10835;50.148;19.760;2024-01-06T10:18:38;22.10;44.20
21355;DHT22;10835;50.148;19.760;2024-01-06T10:21:09;22.20;44.40
21355;DHT22;10835;50.148;19.760;2024-01-06T10:23:37;22.30;44.40
21355;DHT22;10835;50.148;19.760;2024-01-06T10:26:07;22.40;44.30
21355;DHT22;10835;50.148;19.760;2024-01-06T10:28:36;22.50;44.00
21355;DHT22;10835;50.148;19.760;2024-01-06T10:31:05;22.80;43.70
21355;DHT22;10835;50.148;19.760;2024-01-06T10:33:33;22.60;43.50
21355;DHT22;10835;50.148;19.760;2024-01-06T10:36:03;22.60;44.00
21355;DHT22;10835;50.148;19.760;2024-01-06T10:38:34;22.30;43.60
21355;DHT22;10835;50.148;19.760;2024-01-06T10:41:03;22.60;43.90
21355;DHT22;10835;50.148;19.760;2024-01-06T10:43:35;22.80;43.60
21355;DHT22;10835;50.148;19.760;2024-01-06T10:46:08;22.90;43.50
21355;DHT22;10835;50.148;19.760;2024-01-06T10:48:39;23.00;43.20
21355;DHT22;10835;50.148;19.760;2024-01-06T10:51:11;23.00;43.10
21355;DHT22;10835;50.148;19.760;2024-01-06T10:53:43;22.80;43.30
21355;DHT22;10835;50.148;19.760;2024-01-06T10:56:11;22.60;43.50
21355;DHT22;10835;50.148;19.760;2024-01-06T10:58:45;22.60;43.90
21355;DHT22;10835;50.148;19.760;2024-01-06T11:01:16;22.60;43.90
21355;DHT22;10835;50.148;19.760;2024-01-06T11:03:50;22.70;43.90
21355;DHT22;10835;50.148;19.760;2024-01-06T11:06:22;23.00;43.60
21355;DHT22;10835;50.148;19.760;2024-01-06T11:08:57;23.10;43.20
21355;DHT22;10835;50.148;19.760;2024-01-06T11:11:28;23.20;43.10
21355;DHT22;10835;50.148;19.760;2024-01-06T11:14:17;23.30;43.10
21355;DHT22;10835;50.148;19.760;2024-01-06T11:16:46;23.30;42.90
21355;DHT22;10835;50.148;19.760;2024-01-06T11:19:44;23.30;42.80
21355;DHT22;10835;50.148;19.760;2024-01-06T11:22:23;23.40;42.80
21355;DHT22;10835;50.148;19.760;2024-01-06T11:24:54;23.40;42.60
21355;DHT22;10835;50.148;19.760;2024-01-06T11:27:25;23.40;42.70
21355;DHT22;10835;50.148;19.760;2024-01-06T11:29:57;23.40;42.70
21355;DHT22;10835;50.148;19.760;2024-01-06T11:32:29;23.30;42.80
21355;DHT22;10835;50.148;19.760;2024-01-06T11:35:05;23.40;42.80
21355;DHT22;10835;50.148;19.760;2024-01-06T11:37:37;23.40;42.60
21355;DHT22;10835;50.148;19.760;2024-01-06T11:40:10;23.40;42.50
21355;DHT22;10835;50.148;19.760;2024-01-06T11:42:41;23.40;42.70
21355;DHT22;10835;50.148;19.760;2024-01-06T11:45:09;23.30;43.00
21355;DHT22;10835;50.148;19.760;2024-01-06T11:47:39;23.40;42.90
21355;DHT22;10835;50.148;19.760;2024-01-06T11:50:08;23.50;42.90
21355;DHT22;10835;50.148;19.760;2024-01-06T11:52:37;23.50;43.10
21355;DHT22;10835;50.148;19.760;2024-01-06T11:55:06;23.50;43.80
21355;DHT22;10835;50.148;19.760;2024-01-06T11:57:37;23.10;43.10
21355;DHT22;10835;50.148;19.760;2024-01-06T12:00:07;23.00;43.70
21355;DHT22;10835;50.148;19.760;2024-01-06T12:02:35;23.00;43.90
21355;DHT22;10835;50.148;19.760;2024-01-06T12:05:04;23.00;43.70
21355;DHT22;10835;50.148;19.760;2024-01-06T12:07:33;23.00;44.10
21355;DHT22;10835;50.148;19.760;2024-01-06T12:10:03;23.10;43.10
21355;DHT22;10835;50.148;19.760;2024-01-06T12:12:32;22.70;43.80
21355;DHT22;10835;50.148;19.760;2024-01-06T12:15:02;22.80;43.90
21355;DHT22;10835;50.148;19.760;2024-01-06T12:17:31;22.90;43.80
21355;DHT22;10835;50.148;19.760;2024-01-06T12:20:00;22.70;43.60
21355;DHT22;10835;50.148;19.760;2024-01-06T12:22:29;22.50;43.70
21355;DHT22;10835;50.148;19.760;2024-01-06T12:24:59;22.80;43.50
21355;DHT22;10835;50.148;19.760;2024-01-06T12:27:27;22.90;43.40
21355;DHT22;10835;50.148;19.760;2024-01-06T12:29:56;22.90;43.10
21355;DHT22;10835;50.148;19.760;2024-01-06T12:32:26;22.90;42.80
21355;DHT22;10835;50.148;19.760;2024-01-06T12:34:55;22.80;43.10
21355;DHT22;10835;50.148;19.760;2024-01-06T12:37:24;22.80;43.10
21355;DHT22;10835;50.148;19.760;2024-01-06T12:39:52;22.80;43.10
21355;DHT22;10835;50.148;19.760;2024-01-06T12:42:20;22.80;42.80
21355;DHT22;10835;50.148;19.760;2024-01-06T12:44:51;22.80;42.50
21355;DHT22;10835;50.148;19.760;2024-01-06T12:47:19;22.80;42.50
21355;DHT22;10835;50.148;19.760;2024-01-06T12:49:49;22.70;42.40
21355;DHT22;10835;50.148;19.760;2024-01-06T12:52:18;22.40;42.90
21355;DHT22;10835;50.148;19.760;2024-01-06T12:54:46;22.00;43.30
21355;DHT22;10835;50.148;19.760;2024-01-06T12:57:15;21.40;43.70
21355;DHT22;10835;50.148;19.760;2024-01-06T12:59:43;21.30;44.50
21355;DHT22;10835;50.148;19.760;2024-01-06T13:02:12;20.70;44.90
21355;DHT22;10835;50.148;19.760;2024-01-06T13:04:40;20.80;45.60
21355;DHT22;10835;50.148;19.760;2024-01-06T13:07:10;20.70;45.20
21355;DHT22;10835;50.148;19.760;2024-01-06T13:09:39;21.00;45.60
21355;DHT22;10835;50.148;19.760;2024-01-06T13:12:08;20.70;45.60
21355;DHT22;10835;50.148;19.760;2024-01-06T13:14:40;21.00;45.80
21355;DHT22;10835;50.148;19.760;2024-01-06T13:17:11;21.20;45.10
21355;DHT22;10835;50.148;19.760;2024-01-06T13:19:41;21.10;45.10
21355;DHT22;10835;50.148;19.760;2024-01-06T13:22:11;21.10;44.90
21355;DHT22;10835;50.148;19.760;2024-01-06T13:24:40;21.30;44.90
21355;DHT22;10835;50.148;19.760;2024-01-06T13:27:08;21.30;45.00
21355;DHT22;10835;50.148;19.760;2024-01-06T13:29:36;21.60;44.70
21355;DHT22;10835;50.148;19.760;2024-01-06T13:32:05;21.60;44.40
21355;DHT22;10835;50.148;19.760;2024-01-06T13:34:34;21.70;44.20
21355;DHT22;10835;50.148;19.760;2024-01-06T13:37:03;21.90;43.90
21355;DHT22;10835;50.148;19.760;2024-01-06T13:39:34;21.80;43.80
21355;DHT22;10835;50.148;19.760;2024-01-06T13:42:03;21.50;43.90
21355;DHT22;10835;50.148;19.760;2024-01-06T13:44:31;21.30;44.40
21355;DHT22;10835;50.148;19.760;2024-01-06T13:47:00;21.40;44.50
21355;DHT22;10835;50.148;19.760;2024-01-06T13:49:29;21.50;44.30
21355;DHT22;10835;50.148;19.760;2024-01-06T13:51:57;21.40;44.20
21355;DHT22;10835;50.148;19.760;2024-01-06T13:54:26;21.50;43.90
21355;DHT22;10835;50.148;19.760;2024-01-06T13:56:57;21.60;44.00
21355;DHT22;10835;50.148;19.760;2024-01-06T13:59:25;21.30;43.90
21355;DHT22;10835;50.148;19.760;2024-01-06T14:01:54;21.20;44.30
21355;DHT22;10835;50.148;19.760;2024-01-06T14:04:23;20.90;44.40
21355;DHT22;10835;50.148;19.760;2024-01-06T14:06:53;20.90;44.60
21355;DHT22;10835;50.148;19.760;2024-01-06T14:09:23;21.00;44.40
21355;DHT22;10835;50.148;19.760;2024-01-06T14:11:53;20.50;45.00
21355;DHT22;10835;50.148;19.760;2024-01-06T14:14:24;20.70;45.30
21355;DHT22;10835;50.148;19.760;2024-01-06T14:16:53;20.60;45.00
21355;DHT22;10835;50.148;19.760;2024-01-06T14:19:21;20.30;44.80
21355;DHT22;10835;50.148;19.760;2024-01-06T14:21:51;20.20;45.30
21355;DHT22;10835;50.148;19.760;2024-01-06T14:24:20;20.40;45.40
21355;DHT22;10835;50.148;19.760;2024-01-06T14:26:50;20.60;45.00
21355;DHT22;10835;50.148;19.760;2024-01-06T14:29:20;20.80;44.60
21355;DHT22;10835;50.148;19.760;2024-01-06T14:31:50;20.90;44.50
21355;DHT22;10835;50.148;19.760;2024-01-06T14:34:19;21.10;44.40
21355;DHT22;10835;50.148;19.760;2024-01-06T14:36:47;20.90;44.00
21355;DHT22;10835;50.148;19.760;2024-01-06T14:39:16;20.20;44.60
21355;DHT22;10835;50.148;19.760;2024-01-06T14:41:46;20.40;44.90
21355;DHT22;10835;50.148;19.760;2024-01-06T14:44:14;20.70;44.90
21355;DHT22;10835;50.148;19.760;2024-01-06T14:46:44;20.60;44.60
21355;DHT22;10835;50.148;19.760;2024-01-06T14:49:13;20.00;45.00
21355;DHT22;10835;50.148;19.760;2024-01-06T14:51:42;20.10;45.50
21355;DHT22;10835;50.148;19.760;2024-01-06T14:54:11;19.80;45.50
21355;DHT22;10835;50.148;19.760;2024-01-06T14:56:40;19.60;46.00
21355;DHT22;10835;50.148;19.760;2024-01-06T14:59:08;19.00;46.30
21355;DHT22;10835;50.148;19.760;2024-01-06T15:01:37;18.90;47.00
21355;DHT22;10835;50.148;19.760;2024-01-06T15:04:06;18.60;47.40
21355;DHT22;10835;50.148;19.760;2024-01-06T15:06:36;19.00;47.90
21355;DHT22;10835;50.148;19.760;2024-01-06T15:09:05;18.10;48.20
21355;DHT22;10835;50.148;19.760;2024-01-06T15:11:34;18.00;48.70
21355;DHT22;10835;50.148;19.760;2024-01-06T15:14:03;18.10;49.40
21355;DHT22;10835;50.148;19.760;2024-01-06T15:16:32;18.10;48.90
21355;DHT22;10835;50.148;19.760;2024-01-06T15:19:00;17.40;49.30
21355;DHT22;10835;50.148;19.760;2024-01-06T15:21:29;17.10;50.30
21355;DHT22;10835;50.148;19.760;2024-01-06T15:24:02;17.20;50.40
21355;DHT22;10835;50.148;19.760;2024-01-06T15:26:31;17.50;50.30
21355;DHT22;10835;50.148;19.760;2024-01-06T15:28:59;17.20;50.10